sensor_id;sensor_type;location;lat;lon;timestamp;temperature;humidity
67769;DHT22;54569;52.018;5.584;2023-02-18T00:00:38;10.40;95.00
67769;DHT22;54569;52.018;5.584;2023-02-18T00:03:04;10.40;95.10
67769;DHT22;54569;52.018;5.584;2023-02-18T00:05:29;10.40;95.00
67769;DHT22;54569;52.018;5.584;2023-02-18T00:07:55;10.40;95.00
67769;DHT22;54569;52.018;5.584;2023-02-18T00:10:21;10.40;95.30
67769;DHT22;54569;52.018;5.584;2023-02-18T00:12:46;10.40;95.20
67769;DHT22;54569;52.018;5.584;2023-02-18T00:15:12;10.40;95.40
67769;DHT22;54569;52.018;5.584;2023-02-18T00:17:38;10.40;95.30
67769;DHT22;54569;52.018;5.584;2023-02-18T00:20:05;10.30;95.50
67769;DHT22;54569;52.018;5.584;2023-02-18T00:22:31;10.30;95.50
67769;DHT22;54569;52.018;5.584;2023-02-18T00:24:56;10.30;95.50
67769;DHT22;54569;52.018;5.584;2023-02-18T00:27:22;10.30;95.70
67769;DHT22;54569;52.018;5.584;2023-02-18T00:29:48;10.30;95.80
67769;DHT22;54569;52.018;5.584;2023-02-18T00:32:13;10.30;95.70
67769;DHT22;54569;52.018;5.584;2023-02-18T00:34:39;10.20;95.80
67769;DHT22;54569;52.018;5.584;2023-02-18T00:37:05;10.20;95.80
67769;DHT22;54569;52.018;5.584;2023-02-18T00:39:31;10.20;95.90
67769;DHT22;54569;52.018;5.584;2023-02-18T00:41:56;10.20;96.10
67769;DHT22;54569;52.018;5.584;2023-02-18T00:44:22;10.10;96.10
67769;DHT22;54569;52.018;5.584;2023-02-18T00:46:48;10.10;96.30
67769;DHT22;54569;52.018;5.584;2023-02-18T00:49:14;10.10;96.40
67769;DHT22;54569;52.018;5.584;2023-02-18T00:51:41;10.00;96.50
67769;DHT22;54569;52.018;5.584;2023-02-18T00:54:07;9.90;96.40
67769;DHT22;54569;52.018;5.584;2023-02-18T00:56:33;10.00;96.40
67769;DHT22;54569;52.018;5.584;2023-02-18T00:58:58;10.00;96.80
67769;DHT22;54569;52.018;5.584;2023-02-18T01:01:24;9.90;96.60
67769;DHT22;54569;52.018;5.584;2023-02-18T01:03:50;9.90;96.50
67769;DHT22;54569;52.018;5.584;2023-02-18T01:06:16;9.90;96.60
67769;DHT22;54569;52.018;5.584;2023-02-18T01:08:42;9.90;96.60
67769;DHT22;54569;52.018;5.584;2023-02-18T01:11:10;9.80;96.80
67769;DHT22;54569;52.018;5.584;2023-02-18T01:13:36;9.80;97.10
67769;DHT22;54569;52.018;5.584;2023-02-18T01:16:02;9.80;97.10
67769;DHT22;54569;52.018;5.584;2023-02-18T01:18:29;9.80;97.10
67769;DHT22;54569;52.018;5.584;2023-02-18T01:20:55;9.70;97.10
67769;DHT22;54569;52.018;5.584;2023-02-18T01:23:21;9.80;97.10
67769;DHT22;54569;52.018;5.584;2023-02-18T01:25:47;9.70;97.30
67769;DHT22;54569;52.018;5.584;2023-02-18T01:28:13;9.70;97.10
67769;DHT22;54569;52.018;5.584;2023-02-18T01:30:40;9.70;97.30
67769;DHT22;54569;52.018;5.584;2023-02-18T01:33:06;9.70;97.50
67769;DHT22;54569;52.018;5.584;2023-02-18T01:35:31;9.70;97.40
67769;DHT22;54569;52.018;5.584;2023-02-18T01:37:57;9.70;97.10
67769;DHT22;54569;52.018;5.584;2023-02-18T01:40:26;9.70;97.10
67769;DHT22;54569;52.018;5.584;2023-02-18T01:42:52;9.70;97.00
67769;DHT22;54569;52.018;5.584;2023-02-18T01:50:33;9.70;97.10
67769;DHT22;54569;52.018;5.584;2023-02-18T01:53:01;9.70;97.20
67769;DHT22;54569;52.018;5.584;2023-02-18T01:55:30;9.70;97.20
67769;DHT22;54569;52.018;5.584;2023-02-18T01:57:56;9.70;97.10
67769;DHT22;54569;52.018;5.584;2023-02-18T02:00:22;9.80;97.10
67769;DHT22;54569;52.018;5.584;2023-02-18T02:02:50;9.80;97.10
67769;DHT22;54569;52.018;5.584;2023-02-18T02:05:17;9.80;97.20
67769;DHT22;54569;52.018;5.584;2023-02-18T02:07:44;9.80;97.20
67769;DHT22;54569;52.018;5.584;2023-02-18T02:10:12;9.90;97.00
67769;DHT22;54569;52.018;5.584;2023-02-18T02:12:42;9.90;97.40
67769;DHT22;54569;52.018;5.584;2023-02-18T02:17:58;9.90;97.50
67769;DHT22;54569;52.018;5.584;2023-02-18T02:34:51;10.00;97.50
67769;DHT22;54569;52.018;5.584;2023-02-18T02:43:26;10.10;97.80
67769;DHT22;54569;52.018;5.584;2023-02-18T02:46:10;10.10;97.40
67769;DHT22;54569;52.018;5.584;2023-02-18T02:53:50;10.20;97.70
67769;DHT22;54569;52.018;5.584;2023-02-18T02:56:24;10.20;97.70
67769;DHT22;54569;52.018;5.584;2023-02-18T02:59:05;10.20;97.70
67769;DHT22;54569;52.018;5.584;2023-02-18T03:07:11;10.30;97.50
67769;DHT22;54569;52.018;5.584;2023-02-18T03:18:03;10.40;98.40
67769;DHT22;54569;52.018;5.584;2023-02-18T03:20:40;10.40;98.20
67769;DHT22;54569;52.018;5.584;2023-02-18T03:23:10;10.40;98.50
67769;DHT22;54569;52.018;5.584;2023-02-18T03:25:41;10.40;98.60
67769;DHT22;54569;52.018;5.584;2023-02-18T03:28:12;10.50;98.40
67769;DHT22;54569;52.018;5.584;2023-02-18T03:30:41;10.50;98.10
67769;DHT22;54569;52.018;5.584;2023-02-18T03:33:10;10.50;98.00
67769;DHT22;54569;52.018;5.584;2023-02-18T03:35:38;10.50;98.20
67769;DHT22;54569;52.018;5.584;2023-02-18T03:38:18;10.50;98.60
67769;DHT22;54569;52.018;5.584;2023-02-18T03:40:45;10.50;98.40
67769;DHT22;54569;52.018;5.584;2023-02-18T03:43:11;10.50;98.00
67769;DHT22;54569;52.018;5.584;2023-02-18T03:45:37;10.50;98.30
67769;DHT22;54569;52.018;5.584;2023-02-18T03:48:03;10.60;98.10
67769;DHT22;54569;52.018;5.584;2023-02-18T03:50:29;10.60;98.20
67769;DHT22;54569;52.018;5.584;2023-02-18T03:52:55;10.60;98.50
67769;DHT22;54569;52.018;5.584;2023-02-18T03:55:21;10.60;98.50
67769;DHT22;54569;52.018;5.584;2023-02-18T03:57:46;10.60;98.40
67769;DHT22;54569;52.018;5.584;2023-02-18T04:00:12;10.60;98.40
67769;DHT22;54569;52.018;5.584;2023-02-18T04:02:41;10.60;98.80
67769;DHT22;54569;52.018;5.584;2023-02-18T04:05:07;10.60;98.60
67769;DHT22;54569;52.018;5.584;2023-02-18T04:07:33;10.60;98.70
67769;DHT22;54569;52.018;5.584;2023-02-18T04:09:59;10.60;98.50
67769;DHT22;54569;52.018;5.584;2023-02-18T04:12:25;10.70;98.60
67769;DHT22;54569;52.018;5.584;2023-02-18T04:14:50;10.70;98.80
67769;DHT22;54569;52.018;5.584;2023-02-18T04:17:18;10.70;99.00
67769;DHT22;54569;52.018;5.584;2023-02-18T04:19:43;10.70;99.00
67769;DHT22;54569;52.018;5.584;2023-02-18T04:22:09;10.70;99.20
67769;DHT22;54569;52.018;5.584;2023-02-18T04:24:35;10.70;99.20
67769;DHT22;54569;52.018;5.584;2023-02-18T04:27:01;10.80;99.30
67769;DHT22;54569;52.018;5.584;2023-02-18T04:29:27;10.70;99.40
67769;DHT22;54569;52.018;5.584;2023-02-18T04:31:52;10.70;99.60
67769;DHT22;54569;52.018;5.584;2023-02-18T04:34:18;10.80;99.20
67769;DHT22;54569;52.018;5.584;2023-02-18T04:36:43;10.80;99.20
67769;DHT22;54569;52.018;5.584;2023-02-18T04:39:09;10.80;99.60
67769;DHT22;54569;52.018;5.584;2023-02-18T04:41:35;10.80;99.60
67769;DHT22;54569;52.018;5.584;2023-02-18T04:44:00;10.80;99.50
67769;DHT22;54569;52.018;5.584;2023-02-18T04:46:26;10.80;99.20
67769;DHT22;54569;52.018;5.584;2023-02-18T04:48:52;10.80;99.40
67769;DHT22;54569;52.018;5.584;2023-02-18T04:51:18;10.80;99.50
67769;DHT22;54569;52.018;5.584;2023-02-18T04:53:44;10.80;99.30
67769;DHT22;54569;52.018;5.584;2023-02-18T04:56:10;10.80;99.30
67769;DHT22;54569;52.018;5.584;2023-02-18T04:58:36;10.80;99.50
67769;DHT22;54569;52.018;5.584;2023-02-18T05:01:03;10.80;99.90
67769;DHT22;54569;52.018;5.584;2023-02-18T05:03:29;10.80;99.70
67769;DHT22;54569;52.018;5.584;2023-02-18T05:05:55;10.80;99.60
67769;DHT22;54569;52.018;5.584;2023-02-18T05:08:21;10.80;99.60
67769;DHT22;54569;52.018;5.584;2023-02-18T05:10:46;10.80;99.50
67769;DHT22;54569;52.018;5.584;2023-02-18T05:13:12;10.80;99.60
67769;DHT22;54569;52.018;5.584;2023-02-18T05:15:38;10.80;99.30
67769;DHT22;54569;52.018;5.584;2023-02-18T05:18:03;10.80;99.70
67769;DHT22;54569;52.018;5.584;2023-02-18T05:20:29;10.80;99.90
67769;DHT22;54569;52.018;5.584;2023-02-18T05:22:55;10.80;99.90
67769;DHT22;54569;52.018;5.584;2023-02-18T05:25:21;10.80;99.90
67769;DHT22;54569;52.018;5.584;2023-02-18T05:27:46;10.80;99.90
67769;DHT22;54569;52.018;5.584;2023-02-18T05:30:12;10.80;99.70
67769;DHT22;54569;52.018;5.584;2023-02-18T05:32:38;10.80;99.60
67769;DHT22;54569;52.018;5.584;2023-02-18T05:35:04;10.80;99.70
67769;DHT22;54569;52.018;5.584;2023-02-18T05:37:29;10.70;99.80
67769;DHT22;54569;52.018;5.584;2023-02-18T05:39:55;10.80;99.70
67769;DHT22;54569;52.018;5.584;2023-02-18T05:42:21;10.80;99.90
67769;DHT22;54569;52.018;5.584;2023-02-18T05:44:48;10.70;99.70
67769;DHT22;54569;52.018;5.584;2023-02-18T05:47:13;10.70;99.90
67769;DHT22;54569;52.018;5.584;2023-02-18T05:49:40;10.70;99.70
67769;DHT22;54569;52.018;5.584;2023-02-18T05:52:07;10.70;99.90
67769;DHT22;54569;52.018;5.584;2023-02-18T05:54:34;10.70;99.90
67769;DHT22;54569;52.018;5.584;2023-02-18T05:57:00;10.60;99.90
67769;DHT22;54569;52.018;5.584;2023-02-18T05:59:26;10.70;99.90
67769;DHT22;54569;52.018;5.584;2023-02-18T06:01:52;10.70;99.70
67769;DHT22;54569;52.018;5.584;2023-02-18T06:04:18;10.60;99.40
67769;DHT22;54569;52.018;5.584;2023-02-18T06:06:44;10.60;99.70
67769;DHT22;54569;52.018;5.584;2023-02-18T06:09:10;10.60;99.90
67769;DHT22;54569;52.018;5.584;2023-02-18T06:11:36;10.60;99.50
67769;DHT22;54569;52.018;5.584;2023-02-18T06:14:07;10.50;99.40
67769;DHT22;54569;52.018;5.584;2023-02-18T06:16:33;10.50;99.90
67769;DHT22;54569;52.018;5.584;2023-02-18T06:18:58;10.50;99.90
67769;DHT22;54569;52.018;5.584;2023-02-18T06:21:24;10.50;99.90
67769;DHT22;54569;52.018;5.584;2023-02-18T06:23:50;10.50;99.50
67769;DHT22;54569;52.018;5.584;2023-02-18T06:26:16;10.50;99.40
67769;DHT22;54569;52.018;5.584;2023-02-18T06:28:41;10.50;99.20
67769;DHT22;54569;52.018;5.584;2023-02-18T06:31:07;10.50;99.50
67769;DHT22;54569;52.018;5.584;2023-02-18T06:33:33;10.50;99.40
67769;DHT22;54569;52.018;5.584;2023-02-18T06:36:01;10.50;99.50
67769;DHT22;54569;52.018;5.584;2023-02-18T06:38:27;10.50;99.60
67769;DHT22;54569;52.018;5.584;2023-02-18T06:40:53;10.50;99.70
67769;DHT22;54569;52.018;5.584;2023-02-18T06:43:20;10.50;99.70
67769;DHT22;54569;52.018;5.584;2023-02-18T06:45:46;10.50;99.90
67769;DHT22;54569;52.018;5.584;2023-02-18T06:48:12;10.50;99.80
67769;DHT22;54569;52.018;5.584;2023-02-18T06:50:44;10.50;99.80
67769;DHT22;54569;52.018;5.584;2023-02-18T06:53:10;10.50;99.80
67769;DHT22;54569;52.018;5.584;2023-02-18T06:55:36;10.40;99.70
67769;DHT22;54569;52.018;5.584;2023-02-18T06:58:02;10.40;99.90
67769;DHT22;54569;52.018;5.584;2023-02-18T07:00:28;10.50;99.90
67769;DHT22;54569;52.018;5.584;2023-02-18T07:02:54;10.40;99.70
67769;DHT22;54569;52.018;5.584;2023-02-18T07:05:20;10.50;99.70
67769;DHT22;54569;52.018;5.584;2023-02-18T07:07:46;10.50;99.90
67769;DHT22;54569;52.018;5.584;2023-02-18T07:10:11;10.40;99.90
67769;DHT22;54569;52.018;5.584;2023-02-18T07:12:37;10.40;99.70
67769;DHT22;54569;52.018;5.584;2023-02-18T07:15:03;10.50;99.50
67769;DHT22;54569;52.018;5.584;2023-02-18T07:17:29;10.40;99.90
67769;DHT22;54569;52.018;5.584;2023-02-18T07:19:55;10.40;99.90
67769;DHT22;54569;52.018;5.584;2023-02-18T07:22:21;10.40;99.80
67769;DHT22;54569;52.018;5.584;2023-02-18T07:24:51;10.40;99.40
67769;DHT22;54569;52.018;5.584;2023-02-18T07:27:17;10.50;99.40
67769;DHT22;54569;52.018;5.584;2023-02-18T07:29:43;10.50;99.40
67769;DHT22;54569;52.018;5.584;2023-02-18T07:32:11;10.50;99.10
67769;DHT22;54569;52.018;5.584;2023-02-18T07:34:37;10.50;99.30
67769;DHT22;54569;52.018;5.584;2023-02-18T07:37:03;10.50;99.30
67769;DHT22;54569;52.018;5.584;2023-02-18T07:39:40;10.50;99.50
67769;DHT22;54569;52.018;5.584;2023-02-18T07:42:06;10.50;99.60
67769;DHT22;54569;52.018;5.584;2023-02-18T07:44:33;10.40;99.80
67769;DHT22;54569;52.018;5.584;2023-02-18T07:46:58;10.40;99.70
67769;DHT22;54569;52.018;5.584;2023-02-18T07:49:24;10.40;99.50
67769;DHT22;54569;52.018;5.584;2023-02-18T07:51:50;10.40;99.50
67769;DHT22;54569;52.018;5.584;2023-02-18T07:54:16;10.40;99.30
67769;DHT22;54569;52.018;5.584;2023-02-18T07:56:43;10.40;99.10
67769;DHT22;54569;52.018;5.584;2023-02-18T07:59:10;10.40;99.20
67769;DHT22;54569;52.018;5.584;2023-02-18T08:01:36;10.40;99.40
67769;DHT22;54569;52.018;5.584;2023-02-18T08:04:01;10.40;99.00
67769;DHT22;54569;52.018;5.584;2023-02-18T08:06:32;10.40;98.80
67769;DHT22;54569;52.018;5.584;2023-02-18T08:08:58;10.40;98.70
67769;DHT22;54569;52.018;5.584;2023-02-18T08:11:24;10.40;98.50
67769;DHT22;54569;52.018;5.584;2023-02-18T08:13:49;10.40;98.30
67769;DHT22;54569;52.018;5.584;2023-02-18T08:16:16;10.40;98.20
67769;DHT22;54569;52.018;5.584;2023-02-18T08:18:42;10.40;98.00
67769;DHT22;54569;52.018;5.584;2023-02-18T08:21:08;10.40;98.00
67769;DHT22;54569;52.018;5.584;2023-02-18T08:23:34;10.40;97.80
67769;DHT22;54569;52.018;5.584;2023-02-18T08:26:00;10.30;97.80
67769;DHT22;54569;52.018;5.584;2023-02-18T08:28:26;10.40;97.60
67769;DHT22;54569;52.018;5.584;2023-02-18T08:30:52;10.30;97.80
67769;DHT22;54569;52.018;5.584;2023-02-18T08:33:19;10.30;97.50
67769;DHT22;54569;52.018;5.584;2023-02-18T08:35:46;10.30;97.40
67769;DHT22;54569;52.018;5.584;2023-02-18T08:38:12;10.30;97.30
67769;DHT22;54569;52.018;5.584;2023-02-18T08:40:38;10.30;97.10
67769;DHT22;54569;52.018;5.584;2023-02-18T08:43:05;10.30;97.20
67769;DHT22;54569;52.018;5.584;2023-02-18T08:45:31;10.30;97.20
67769;DHT22;54569;52.018;5.584;2023-02-18T08:47:57;10.30;97.00
67769;DHT22;54569;52.018;5.584;2023-02-18T08:50:23;10.30;97.10
67769;DHT22;54569;52.018;5.584;2023-02-18T08:52:54;10.30;97.10
67769;DHT22;54569;52.018;5.584;2023-02-18T08:55:20;10.20;97.10
67769;DHT22;54569;52.018;5.584;2023-02-18T08:57:48;10.20;97.10
67769;DHT22;54569;52.018;5.584;2023-02-18T09:00:16;10.20;96.90
67769;DHT22;54569;52.018;5.584;2023-02-18T09:02:42;10.20;97.00
67769;DHT22;54569;52.018;5.584;2023-02-18T09:05:08;10.20;97.00
67769;DHT22;54569;52.018;5.584;2023-02-18T09:07:35;10.10;97.00
67769;DHT22;54569;52.018;5.584;2023-02-18T09:10:00;10.10;97.30
67769;DHT22;54569;52.018;5.584;2023-02-18T09:12:27;10.10;97.30
67769;DHT22;54569;52.018;5.584;2023-02-18T09:14:53;10.10;97.30
67769;DHT22;54569;52.018;5.584;2023-02-18T09:17:19;10.00;97.50
67769;DHT22;54569;52.018;5.584;2023-02-18T09:19:45;10.00;97.60
67769;DHT22;54569;52.018;5.584;2023-02-18T09:22:11;10.00;97.50
67769;DHT22;54569;52.018;5.584;2023-02-18T09:24:38;10.00;97.50
67769;DHT22;54569;52.018;5.584;2023-02-18T09:27:04;10.00;97.90
67769;DHT22;54569;52.018;5.584;2023-02-18T09:29:31;10.00;97.60
67769;DHT22;54569;52.018;5.584;2023-02-18T09:31:59;10.00;97.40
67769;DHT22;54569;52.018;5.584;2023-02-18T09:34:26;10.00;97.40
67769;DHT22;54569;52.018;5.584;2023-02-18T09:36:52;10.10;97.40
67769;DHT22;54569;52.018;5.584;2023-02-18T09:39:17;10.10;97.40
67769;DHT22;54569;52.018;5.584;2023-02-18T09:41:51;10.10;97.20
67769;DHT22;54569;52.018;5.584;2023-02-18T09:45:10;10.10;97.10
67769;DHT22;54569;52.018;5.584;2023-02-18T09:47:30;10.10;97.20
67769;DHT22;54569;52.018;5.584;2023-02-18T09:49:59;10.10;96.90
67769;DHT22;54569;52.018;5.584;2023-02-18T09:52:31;10.10;96.70
67769;DHT22;54569;52.018;5.584;2023-02-18T09:54:58;10.20;96.60
67769;DHT22;54569;52.018;5.584;2023-02-18T09:57:49;10.20;96.40
67769;DHT22;54569;52.018;5.584;2023-02-18T10:00:21;10.20;96.30
67769;DHT22;54569;52.018;5.584;2023-02-18T10:03:03;10.20;96.20
67769;DHT22;54569;52.018;5.584;2023-02-18T10:05:32;10.20;96.30
67769;DHT22;54569;52.018;5.584;2023-02-18T10:08:18;10.20;96.10
67769;DHT22;54569;52.018;5.584;2023-02-18T10:10:46;10.30;96.20
67769;DHT22;54569;52.018;5.584;2023-02-18T10:13:18;10.30;95.90
67769;DHT22;54569;52.018;5.584;2023-02-18T10:15:45;10.30;95.80
67769;DHT22;54569;52.018;5.584;2023-02-18T10:20:47;10.30;95.90
67769;DHT22;54569;52.018;5.584;2023-02-18T10:23:14;10.30;95.70
67769;DHT22;54569;52.018;5.584;2023-02-18T10:25:43;10.40;95.60
67769;DHT22;54569;52.018;5.584;2023-02-18T10:28:11;10.40;95.60
67769;DHT22;54569;52.018;5.584;2023-02-18T10:30:41;10.40;95.40
67769;DHT22;54569;52.018;5.584;2023-02-18T10:35:52;10.50;95.50
67769;DHT22;54569;52.018;5.584;2023-02-18T10:38:52;10.60;96.20
67769;DHT22;54569;52.018;5.584;2023-02-18T10:41:33;10.60;95.40
67769;DHT22;54569;52.018;5.584;2023-02-18T10:52:18;10.60;95.70
67769;DHT22;54569;52.018;5.584;2023-02-18T10:54:58;10.60;95.40
67769;DHT22;54569;52.018;5.584;2023-02-18T10:57:25;10.60;95.30
67769;DHT22;54569;52.018;5.584;2023-02-18T11:00:37;10.70;95.10
67769;DHT22;54569;52.018;5.584;2023-02-18T11:02:43;10.70;95.10
67769;DHT22;54569;52.018;5.584;2023-02-18T11:05:21;10.70;95.00
67769;DHT22;54569;52.018;5.584;2023-02-18T11:07:50;10.80;95.00
67769;DHT22;54569;52.018;5.584;2023-02-18T11:10:25;10.80;94.90
67769;DHT22;54569;52.018;5.584;2023-02-18T11:12:56;10.80;95.30
67769;DHT22;54569;52.018;5.584;2023-02-18T11:15:24;10.90;95.00
67769;DHT22;54569;52.018;5.584;2023-02-18T11:17:53;10.90;94.90
67769;DHT22;54569;52.018;5.584;2023-02-18T11:22:50;11.00;94.60
67769;DHT22;54569;52.018;5.584;2023-02-18T11:25:29;11.00;94.60
67769;DHT22;54569;52.018;5.584;2023-02-18T11:30:43;11.10;94.80
67769;DHT22;54569;52.018;5.584;2023-02-18T11:33:40;11.20;94.50
67769;DHT22;54569;52.018;5.584;2023-02-18T11:36:29;11.20;94.70
67769;DHT22;54569;52.018;5.584;2023-02-18T11:38:58;11.20;94.30
67769;DHT22;54569;52.018;5.584;2023-02-18T11:41:40;11.20;94.30
67769;DHT22;54569;52.018;5.584;2023-02-18T11:44:30;11.30;94.30
67769;DHT22;54569;52.018;5.584;2023-02-18T11:47:16;11.20;94.20
67769;DHT22;54569;52.018;5.584;2023-02-18T11:50:03;11.20;94.20
67769;DHT22;54569;52.018;5.584;2023-02-18T11:52:38;11.20;94.30
67769;DHT22;54569;52.018;5.584;2023-02-18T11:57:31;11.20;94.50
67769;DHT22;54569;52.018;5.584;2023-02-18T11:59:59;11.10;94.80
67769;DHT22;54569;52.018;5.584;2023-02-18T12:05:13;11.10;95.10
67769;DHT22;54569;52.018;5.584;2023-02-18T12:07:44;11.20;95.40
67769;DHT22;54569;52.018;5.584;2023-02-18T12:10:26;11.20;95.30
67769;DHT22;54569;52.018;5.584;2023-02-18T12:13:01;11.20;95.70
67769;DHT22;54569;52.018;5.584;2023-02-18T12:23:57;11.10;95.80
67769;DHT22;54569;52.018;5.584;2023-02-18T12:26:46;11.10;95.90
67769;DHT22;54569;52.018;5.584;2023-02-18T12:37:40;11.20;95.40
67769;DHT22;54569;52.018;5.584;2023-02-18T12:43:04;11.20;95.40
67769;DHT22;54569;52.018;5.584;2023-02-18T12:45:46;11.10;96.30
67769;DHT22;54569;52.018;5.584;2023-02-18T12:54:55;11.20;95.30
67769;DHT22;54569;52.018;5.584;2023-02-18T13:11:01;11.40;94.90
67769;DHT22;54569;52.018;5.584;2023-02-18T13:16:33;11.50;94.70
67769;DHT22;54569;52.018;5.584;2023-02-18T13:21:55;11.70;94.50
67769;DHT22;54569;52.018;5.584;2023-02-18T13:26:57;11.80;94.00
67769;DHT22;54569;52.018;5.584;2023-02-18T13:32:56;11.90;93.80
67769;DHT22;54569;52.018;5.584;2023-02-18T13:35:32;12.00;93.50
67769;DHT22;54569;52.018;5.584;2023-02-18T13:40:43;11.90;93.40
67769;DHT22;54569;52.018;5.584;2023-02-18T13:43:27;11.90;93.80
67769;DHT22;54569;52.018;5.584;2023-02-18T13:46:10;11.80;93.60
67769;DHT22;54569;52.018;5.584;2023-02-18T13:56:34;11.80;93.90
67769;DHT22;54569;52.018;5.584;2023-02-18T14:04:50;11.80;93.80
67769;DHT22;54569;52.018;5.584;2023-02-18T14:09:56;11.70;93.90
67769;DHT22;54569;52.018;5.584;2023-02-18T14:14:51;11.70;93.90
67769;DHT22;54569;52.018;5.584;2023-02-18T14:22:30;11.70;94.00
67769;DHT22;54569;52.018;5.584;2023-02-18T14:27:36;11.70;93.90
67769;DHT22;54569;52.018;5.584;2023-02-18T14:30:15;11.80;93.90
67769;DHT22;54569;52.018;5.584;2023-02-18T14:32:43;11.80;93.80
67769;DHT22;54569;52.018;5.584;2023-02-18T14:40:26;11.80;93.70
67769;DHT22;54569;52.018;5.584;2023-02-18T14:43:06;11.80;93.70
67769;DHT22;54569;52.018;5.584;2023-02-18T14:46:18;11.80;93.60
67769;DHT22;54569;52.018;5.584;2023-02-18T14:51:39;11.80;93.70
67769;DHT22;54569;52.018;5.584;2023-02-18T14:54:09;11.80;93.60
67769;DHT22;54569;52.018;5.584;2023-02-18T14:56:41;11.80;93.60
67769;DHT22;54569;52.018;5.584;2023-02-18T14:59:07;11.80;93.60
67769;DHT22;54569;52.018;5.584;2023-02-18T15:01:35;11.80;93.60
67769;DHT22;54569;52.018;5.584;2023-02-18T15:04:03;11.80;93.50
67769;DHT22;54569;52.018;5.584;2023-02-18T15:06:36;11.90;93.50
67769;DHT22;54569;52.018;5.584;2023-02-18T15:11:41;11.90;93.50
67769;DHT22;54569;52.018;5.584;2023-02-18T15:14:22;11.80;93.50
67769;DHT22;54569;52.018;5.584;2023-02-18T15:16:50;11.80;93.50
67769;DHT22;54569;52.018;5.584;2023-02-18T15:19:19;11.80;93.50
67769;DHT22;54569;52.018;5.584;2023-02-18T15:21:47;11.80;93.50
67769;DHT22;54569;52.018;5.584;2023-02-18T15:24:32;11.80;93.50
67769;DHT22;54569;52.018;5.584;2023-02-18T15:27:01;11.80;93.60
67769;DHT22;54569;52.018;5.584;2023-02-18T15:29:32;11.80;93.60
67769;DHT22;54569;52.018;5.584;2023-02-18T15:31:58;11.70;93.70
67769;DHT22;54569;52.018;5.584;2023-02-18T15:36:53;11.80;93.70
67769;DHT22;54569;52.018;5.584;2023-02-18T15:39:20;11.70;93.70
67769;DHT22;54569;52.018;5.584;2023-02-18T15:41:46;11.80;93.70
67769;DHT22;54569;52.018;5.584;2023-02-18T15:44:19;11.80;93.60
67769;DHT22;54569;52.018;5.584;2023-02-18T15:46:46;11.70;93.60
67769;DHT22;54569;52.018;5.584;2023-02-18T15:49:14;11.70;93.70
67769;DHT22;54569;52.018;5.584;2023-02-18T15:51:42;11.70;93.70
67769;DHT22;54569;52.018;5.584;2023-02-18T15:54:19;11.70;94.00
67769;DHT22;54569;52.018;5.584;2023-02-18T15:56:49;11.70;93.80
67769;DHT22;54569;52.018;5.584;2023-02-18T15:59:21;11.70;93.80
67769;DHT22;54569;52.018;5.584;2023-02-18T16:01:50;11.70;93.70
67769;DHT22;54569;52.018;5.584;2023-02-18T16:04:17;11.70;93.70
67769;DHT22;54569;52.018;5.584;2023-02-18T16:06:47;11.60;93.80
67769;DHT22;54569;52.018;5.584;2023-02-18T16:09:18;11.60;93.80
67769;DHT22;54569;52.018;5.584;2023-02-18T16:11:53;11.60;93.90
67769;DHT22;54569;52.018;5.584;2023-02-18T16:14:32;11.60;94.00
67769;DHT22;54569;52.018;5.584;2023-02-18T16:25:21;11.50;94.20
67769;DHT22;54569;52.018;5.584;2023-02-18T16:27:51;11.50;94.30
67769;DHT22;54569;52.018;5.584;2023-02-18T16:30:23;11.40;94.30
67769;DHT22;54569;52.018;5.584;2023-02-18T16:32:50;11.40;94.20
67769;DHT22;54569;52.018;5.584;2023-02-18T16:35:17;11.40;94.40
67769;DHT22;54569;52.018;5.584;2023-02-18T16:37:43;11.30;94.30
67769;DHT22;54569;52.018;5.584;2023-02-18T16:42:59;11.30;94.40
67769;DHT22;54569;52.018;5.584;2023-02-18T16:45:32;11.30;94.50
67769;DHT22;54569;52.018;5.584;2023-02-18T16:47:59;11.30;94.50
67769;DHT22;54569;52.018;5.584;2023-02-18T16:50:27;11.30;94.60
67769;DHT22;54569;52.018;5.584;2023-02-18T16:52:55;11.20;94.60
67769;DHT22;54569;52.018;5.584;2023-02-18T16:55:23;11.20;94.60
67769;DHT22;54569;52.018;5.584;2023-02-18T16:57:49;11.20;94.60
67769;DHT22;54569;52.018;5.584;2023-02-18T17:00:16;11.20;94.70
67769;DHT22;54569;52.018;5.584;2023-02-18T17:02:43;11.20;94.70
67769;DHT22;54569;52.018;5.584;2023-02-18T17:05:19;11.10;94.70
67769;DHT22;54569;52.018;5.584;2023-02-18T17:07:46;11.10;94.80
67769;DHT22;54569;52.018;5.584;2023-02-18T17:10:12;11.10;94.80
67769;DHT22;54569;52.018;5.584;2023-02-18T17:12:42;11.10;94.80
67769;DHT22;54569;52.018;5.584;2023-02-18T17:15:24;11.10;94.80
67769;DHT22;54569;52.018;5.584;2023-02-18T17:17:51;11.00;94.80
67769;DHT22;54569;52.018;5.584;2023-02-18T17:20:17;11.10;94.90
67769;DHT22;54569;52.018;5.584;2023-02-18T17:22:44;11.10;94.90
67769;DHT22;54569;52.018;5.584;2023-02-18T17:25:18;11.00;95.00
67769;DHT22;54569;52.018;5.584;2023-02-18T17:27:44;11.00;95.00
67769;DHT22;54569;52.018;5.584;2023-02-18T17:30:10;11.00;95.10
67769;DHT22;54569;52.018;5.584;2023-02-18T17:32:36;11.00;95.10
67769;DHT22;54569;52.018;5.584;2023-02-18T17:35:02;11.00;95.10
67769;DHT22;54569;52.018;5.584;2023-02-18T17:37:28;11.00;95.10
67769;DHT22;54569;52.018;5.584;2023-02-18T17:39:54;11.00;95.10
67769;DHT22;54569;52.018;5.584;2023-02-18T17:42:20;11.00;95.10
67769;DHT22;54569;52.018;5.584;2023-02-18T17:44:46;11.00;95.10
67769;DHT22;54569;52.018;5.584;2023-02-18T17:47:11;11.00;95.20
67769;DHT22;54569;52.018;5.584;2023-02-18T17:49:37;11.00;95.10
67769;DHT22;54569;52.018;5.584;2023-02-18T17:52:03;11.00;95.10
67769;DHT22;54569;52.018;5.584;2023-02-18T17:54:29;11.00;95.10
67769;DHT22;54569;52.018;5.584;2023-02-18T17:56:54;11.00;95.10
67769;DHT22;54569;52.018;5.584;2023-02-18T17:59:21;11.00;95.20
67769;DHT22;54569;52.018;5.584;2023-02-18T18:01:46;10.90;95.30
67769;DHT22;54569;52.018;5.584;2023-02-18T18:04:17;10.90;95.20
67769;DHT22;54569;52.018;5.584;2023-02-18T18:06:43;11.00;95.20
67769;DHT22;54569;52.018;5.584;2023-02-18T18:09:11;11.00;95.20
67769;DHT22;54569;52.018;5.584;2023-02-18T18:11:37;11.00;95.20
67769;DHT22;54569;52.018;5.584;2023-02-18T18:14:03;10.90;95.30
67769;DHT22;54569;52.018;5.584;2023-02-18T18:16:29;11.00;95.40
67769;DHT22;54569;52.018;5.584;2023-02-18T18:18:58;10.90;95.30
67769;DHT22;54569;52.018;5.584;2023-02-18T18:21:28;11.00;95.40
67769;DHT22;54569;52.018;5.584;2023-02-18T18:23:54;10.90;95.70
67769;DHT22;54569;52.018;5.584;2023-02-18T18:26:19;10.90;95.30
67769;DHT22;54569;52.018;5.584;2023-02-18T18:28:45;10.90;95.40
67769;DHT22;54569;52.018;5.584;2023-02-18T18:31:14;11.00;95.50
67769;DHT22;54569;52.018;5.584;2023-02-18T18:33:41;10.90;95.40
67769;DHT22;54569;52.018;5.584;2023-02-18T18:36:07;11.00;95.50
67769;DHT22;54569;52.018;5.584;2023-02-18T18:38:33;11.00;95.40